logo
Rechercher aéroport 
image banner adimage banner adimage banner ad
image banner ad

LZIB - Bratislava/M. R. Stefanik

Situé à Bratislava, Slovakia

ICAO - LZIB, IATA - BTS

Données fournies par Airmate  

Information générale

Coordonnées: N48°10'12" E17°12'46"
Élévation : 436 feet MSL.
Variation magnétique : 4.8531° East
Voir autres Aéroports à Bratislava

Données opérationnelles

Special qualification required
Heure actuelle UTC:
Heure actuelle locale:
Météo
METAR: LZIB 201230Z 06003KT 030V120 9999 SCT027 BKN032 23/16 Q1011 NOSIG
TAF: TAF COR LZIB 201150Z 2012/2112 08008KT 9999 SCT030 TEMPO 2012/2018 FEW035TCU BKN040 PROB30 TEMPO 2012/2018 11015G25KT 5000 TSRA SCT035CB PROB30 TEMPO 2100/2106 9999 BKN010 TEMPO 2108/2112 11015G25KT PROB30 TEMPO 2110/2112 TSRA SCT030CB BKN035
Voir NOTAMs / SUP AIP / TFR affectant cet aéroport [VIEW]
Fréquences de communication: [VIEW]

Pistes:

Identifiant RWYQFULongueur (ft)Largeur (ft)SurfaceLDA (ft)
13134°10466148CONC10466
31314°10466148CONC9678
0444°9514197CONC9514
22224°9514197CONC9514

Coordonnées de l'aéroport

Adresse: Bratislava Slovakia

Autres services d'aviation

Écoles de pilotage

Profipilot

Profipilot

Jetage

Jetage
info@jetage.sk+421948899000

Vue satellite de LZIB